Time;durP1;ratioP1;P1;durP2;ratioP2;P2;SDS_P1;SDS_P2;PMS_P1;PMS_P2;Temp;Humidity;BMP_temperature;BMP_pressure;BME280_temperature;BME280_humidity;BME280_pressure;Samples;Min_cycle;Max_cycle;Signal;HPM_P1;HPM_P2
2021/06/30 00:01:16;;;;;;;16.58;9.82;;;;;;;17.09;100.00;100851.31;5107734;27;20141;-78
2021/06/30 00:03:52;;;;;;;14.35;9.65;;;;;;;17.05;100.00;100858.00;5088275;27;20133;-78
2021/06/30 00:06:29;;;;;;;14.63;9.95;;;;;;;17.04;100.00;100848.38;5084654;27;20141;-77
2021/06/30 00:09:05;;;;;;;16.48;9.18;;;;;;;17.04;100.00;100854.50;5066374;28;20126;-78
2021/06/30 00:11:42;;;;;;;11.73;10.18;;;;;;;17.04;100.00;100840.44;5109120;27;20143;-77
2021/06/30 00:24:43;;;;;;;13.80;11.65;;;;;;;16.95;100.00;100828.31;5107035;27;20728;-77
2021/06/30 00:27:18;;;;;;;13.95;10.68;;;;;;;16.87;100.00;100829.22;5100534;27;20390;-78
2021/06/30 00:29:55;;;;;;;15.75;10.82;;;;;;;16.87;100.00;100834.53;5061259;28;20134;-77
2021/06/30 00:32:32;;;;;;;14.02;10.60;;;;;;;16.90;100.00;100836.81;5066307;28;20499;-78
2021/06/30 00:35:09;;;;;;;14.77;10.80;;;;;;;16.97;100.00;100836.88;5066171;28;20773;-78
2021/06/30 00:37:45;;;;;;;14.73;11.73;;;;;;;17.00;100.00;100832.03;5107515;27;20141;-77
2021/06/30 00:40:22;;;;;;;15.48;11.75;;;;;;;17.05;100.00;100828.84;5107900;27;20140;-78
2021/06/30 00:42:58;;;;;;;14.38;11.90;;;;;;;17.11;100.00;100822.78;5100371;27;20608;-77
2021/06/30 00:45:35;;;;;;;12.60;11.10;;;;;;;17.11;100.00;100812.19;5127286;27;20131;-77
2021/06/30 00:48:11;;;;;;;17.02;13.60;;;;;;;17.12;100.00;100808.50;5120695;27;20136;-76
2021/06/30 00:50:48;;;;;;;14.52;11.77;;;;;;;17.16;100.00;100806.31;5051052;27;20146;-77
2021/06/30 00:53:24;;;;;;;13.98;12.65;;;;;;;17.15;100.00;100810.78;5058949;28;20138;-76
2021/06/30 00:56:01;;;;;;;13.93;12.25;;;;;;;17.13;100.00;100807.50;5106809;27;20143;-77
2021/06/30 00:58:39;;;;;;;15.63;13.93;;;;;;;17.11;100.00;100809.53;5059655;28;20136;-78
2021/06/30 01:01:16;;;;;;;14.73;13.18;;;;;;;17.10;100.00;100806.06;5066765;28;20379;-76
2021/06/30 01:03:53;;;;;;;12.38;11.13;;;;;;;16.97;100.00;100797.97;5093078;27;20479;-77
2021/06/30 01:06:29;;;;;;;16.70;11.70;;;;;;;16.90;100.00;100802.38;5066893;28;20145;-77
2021/06/30 01:09:07;;;;;;;17.00;11.88;;;;;;;16.86;100.00;100801.94;5106004;27;20133;-77
2021/06/30 01:11:44;;;;;;;14.55;11.57;;;;;;;16.79;100.00;100797.53;5127094;27;20386;-78
2021/06/30 01:14:30;;;;;;;14.63;11.73;;;;;;;16.77;100.00;100796.91;5066829;28;20145;-78
2021/06/30 01:17:07;;;;;;;14.98;13.10;;;;;;;16.72;100.00;100792.97;5103951;27;20392;-78
2021/06/30 01:19:43;;;;;;;15.32;12.18;;;;;;;16.69;100.00;100789.88;5080090;27;20764;-77
2021/06/30 01:22:24;;;;;;;17.58;12.77;;;;;;;16.62;100.00;100792.44;5066012;28;20149;-78
2021/06/30 01:25:01;;;;;;;16.95;12.82;;;;;;;16.66;100.00;100790.25;5120532;27;20392;-76
2021/06/30 01:27:38;;;;;;;14.77;12.88;;;;;;;16.67;100.00;100790.06;5112871;27;20141;-77
2021/06/30 01:30:15;;;;;;;17.02;12.77;;;;;;;16.69;100.00;100800.47;5102350;27;20128;-77
2021/06/30 01:32:51;;;;;;;15.38;13.05;;;;;;;16.75;100.00;100791.78;5085343;28;20148;-77
2021/06/30 01:35:28;;;;;;;13.50;11.85;;;;;;;16.84;100.00;100795.16;5076196;28;20145;-77
2021/06/30 01:38:04;;;;;;;14.88;12.45;;;;;;;16.91;100.00;100798.69;5062061;28;20138;-76
2021/06/30 01:40:41;;;;;;;14.77;13.20;;;;;;;17.00;100.00;100796.78;5138070;27;20134;-82
2021/06/30 01:43:18;;;;;;;15.05;12.85;;;;;;;17.01;100.00;100798.41;5101089;27;20145;-77
2021/06/30 01:45:55;;;;;;;13.88;12.52;;;;;;;17.11;100.00;100801.59;5059981;28;20492;-77
2021/06/30 01:48:30;;;;;;;12.90;11.65;;;;;;;17.11;100.00;100801.59;5100915;27;20137;-77
2021/06/30 01:51:07;;;;;;;12.82;11.63;;;;;;;17.18;100.00;100806.94;5039091;27;20151;-77
2021/06/30 01:53:44;;;;;;;12.57;11.38;;;;;;;17.24;100.00;100812.31;5076720;27;20131;-77
2021/06/30 01:56:23;;;;;;;15.35;11.85;;;;;;;17.26;100.00;100814.78;5065183;28;21055;-77
2021/06/30 01:59:01;;;;;;;13.20;11.82;;;;;;;17.29;100.00;100814.38;5131465;27;20392;-78
2021/06/30 02:01:37;;;;;;;15.98;13.60;;;;;;;17.32;100.00;100814.84;5065751;28;20757;-76
2021/06/30 02:04:13;;;;;;;21.08;18.77;;;;;;;17.44;100.00;100824.94;5147344;27;20621;-76
2021/06/30 02:06:50;;;;;;;18.00;15.88;;;;;;;17.44;100.00;100824.94;5098970;27;20152;-77
2021/06/30 02:09:27;;;;;;;26.33;20.42;;;;;;;17.47;100.00;100833.34;5105395;27;20455;-77
2021/06/30 02:12:03;;;;;;;60.72;35.55;;;;;;;17.52;100.00;100830.13;5126903;27;20493;-78
2021/06/30 02:14:40;;;;;;;58.65;36.17;;;;;;;17.46;100.00;100834.34;5127236;27;20132;-78
2021/06/30 02:17:18;;;;;;;54.40;33.88;;;;;;;17.42;100.00;100826.97;5058047;28;20142;-78
2021/06/30 02:19:54;;;;;;;61.92;37.10;;;;;;;17.38;100.00;100823.84;5127892;27;20375;-78
2021/06/30 02:22:32;;;;;;;63.50;36.75;;;;;;;17.34;100.00;100830.56;5093037;27;20597;-78
2021/06/30 02:25:13;;;;;;;64.07;36.20;;;;;;;17.34;100.00;100827.09;5106724;27;1205922;-84
2021/06/30 02:27:51;;;;;;;61.53;35.50;;;;;;;17.33;100.00;100828.94;5127496;27;20379;-77
2021/06/30 02:40:51;;;;;;;72.30;38.50;;;;;;;17.22;100.00;100813.53;5105526;27;20396;-77
2021/06/30 02:43:27;;;;;;;74.22;37.72;;;;;;;17.25;100.00;100818.44;5078501;27;20399;-78
2021/06/30 02:46:04;;;;;;;77.47;39.58;;;;;;;17.28;100.00;100821.53;5111818;27;20131;-78
2021/06/30 02:48:41;;;;;;;74.95;37.33;;;;;;;17.29;100.00;100817.03;5023811;27;20147;-78
2021/06/30 02:51:17;;;;;;;67.40;36.65;;;;;;;17.26;100.00;100812.13;5106532;27;20137;-77
2021/06/30 02:53:54;;;;;;;60.78;35.90;;;;;;;17.27;100.00;100805.81;5067112;28;20659;-78
2021/06/30 02:56:30;;;;;;;65.65;35.17;;;;;;;17.25;100.00;100802.53;5028006;28;20129;-77
2021/06/30 02:59:07;;;;;;;62.97;34.85;;;;;;;17.25;100.00;100810.47;5065063;28;20126;-77
2021/06/30 03:01:42;;;;;;;69.47;39.78;;;;;;;17.34;100.00;100804.03;5134393;27;1201390;-83
2021/06/30 03:04:18;;;;;;;68.03;37.28;;;;;;;17.31;100.00;100805.25;5064111;28;20403;-76
2021/06/30 03:06:55;;;;;;;77.35;38.75;;;;;;;17.35;100.00;100811.00;5105465;27;20212;-77
2021/06/30 03:09:32;;;;;;;82.85;41.00;;;;;;;17.32;100.00;100806.88;5107363;27;20137;-76
2021/06/30 03:12:09;;;;;;;83.57;41.88;;;;;;;17.32;100.00;100804.22;5091329;27;20140;-76
2021/06/30 03:14:45;;;;;;;98.57;43.38;;;;;;;17.32;100.00;100811.38;5079472;28;20134;-77
2021/06/30 03:17:22;;;;;;;81.28;41.58;;;;;;;17.30;100.00;100803.59;5058303;28;20132;-78
2021/06/30 03:19:58;;;;;;;88.90;41.38;;;;;;;17.40;100.00;100803.28;5067152;28;20142;-77
2021/06/30 03:22:36;;;;;;;85.80;41.53;;;;;;;17.40;100.00;100805.13;5074293;28;20146;-78
2021/06/30 03:25:14;;;;;;;92.85;41.97;;;;;;;17.41;100.00;100799.63;5065980;28;20395;-78
2021/06/30 03:27:50;;;;;;;78.85;36.85;;;;;;;17.41;100.00;100807.59;5053088;28;20143;-77
2021/06/30 03:30:26;;;;;;;85.32;40.42;;;;;;;17.44;100.00;100807.22;5093381;27;20189;-77
2021/06/30 03:33:03;;;;;;;99.65;45.60;;;;;;;17.47;100.00;100806.00;5072369;27;20137;-77
2021/06/30 03:35:39;;;;;;;98.70;44.70;;;;;;;17.46;100.00;100804.34;5085883;27;20071;-77
2021/06/30 03:38:16;;;;;;;102.63;45.65;;;;;;;17.49;100.00;100814.59;5011138;28;20125;-78
2021/06/30 03:40:52;;;;;;;97.82;43.90;;;;;;;17.53;100.00;100823.78;5086182;27;20129;-77
2021/06/30 03:43:29;;;;;;;103.50;45.78;;;;;;;17.57;100.00;100818.94;5084982;28;20130;-76
2021/06/30 03:46:08;;;;;;;102.57;45.03;;;;;;;17.60;100.00;100822.03;5070753;27;20145;-77
2021/06/30 03:48:44;;;;;;;98.95;43.90;;;;;;;17.63;100.00;100823.47;5047671;28;20404;-77
2021/06/30 03:51:20;;;;;;;109.85;46.55;;;;;;;17.67;100.00;100822.09;5086386;27;20471;-76
2021/06/30 03:53:57;;;;;;;100.03;46.90;;;;;;;17.69;100.00;100818.25;5126010;27;20136;-77
2021/06/30 03:56:34;;;;;;;113.70;48.03;;;;;;;17.70;100.00;100825.16;5101888;27;20133;-77
2021/06/30 03:59:10;;;;;;;98.00;45.47;;;;;;;17.68;100.00;100823.72;5103996;27;20060;-77
2021/06/30 04:01:50;;;;;;;94.43;45.15;;;;;;;17.69;100.00;100820.06;5064586;28;20587;-77
2021/06/30 04:04:27;;;;;;;93.22;44.47;;;;;;;17.72;100.00;100814.38;5085416;27;20444;-77
2021/06/30 04:07:04;;;;;;;89.38;42.80;;;;;;;17.73;100.00;100825.81;5059285;28;20151;-77
2021/06/30 04:09:40;;;;;;;86.97;43.33;;;;;;;17.75;100.00;100823.78;5122519;27;20136;-77
2021/06/30 04:12:16;;;;;;;86.05;42.88;;;;;;;17.77;100.00;100832.38;5062057;28;20603;-77
2021/06/30 04:14:53;;;;;;;80.50;41.13;;;;;;;17.77;100.00;100822.56;5050224;28;20142;-77
2021/06/30 04:17:30;;;;;;;89.63;44.58;;;;;;;17.86;100.00;100820.66;5040553;27;20659;-77
2021/06/30 04:20:09;;;;;;;77.47;39.53;;;;;;;17.95;100.00;100810.69;5098355;27;20613;-77
2021/06/30 04:22:47;;;;;;;66.93;34.92;;;;;;;18.00;100.00;100809.09;5126930;27;20372;-77
2021/06/30 04:25:23;;;;;;;89.53;42.60;;;;;;;18.04;100.00;100817.50;5078684;27;20403;-77
2021/06/30 04:28:00;;;;;;;83.65;43.92;;;;;;;18.09;100.00;100815.91;5103401;27;20131;-77
2021/06/30 04:30:36;;;;;;;68.97;37.55;;;;;;;18.18;100.00;100823.72;5102887;27;20125;-75
2021/06/30 04:33:12;;;;;;;68.45;39.22;;;;;;;18.21;100.00;100813.50;5123966;27;20140;-77
2021/06/30 04:35:49;;;;;;;65.45;37.33;;;;;;;18.32;100.00;100824.63;5108686;27;20475;-77
2021/06/30 04:38:26;;;;;;;50.67;33.55;;;;;;;18.37;100.00;100819.56;5106762;27;20147;-78
2021/06/30 04:41:03;;;;;;;47.85;31.23;;;;;;;18.39;100.00;100812.22;5104428;27;20129;-78
2021/06/30 04:43:39;;;;;;;45.90;30.85;;;;;;;18.43;100.00;100811.59;5102702;27;20136;-78
2021/06/30 04:46:15;;;;;;;47.13;32.55;;;;;;;18.40;100.00;100805.88;5064977;28;20130;-77
2021/06/30 04:48:52;;;;;;;45.80;31.73;;;;;;;18.41;100.00;100810.97;5057722;28;20135;-77
2021/06/30 04:51:29;;;;;;;43.28;31.65;;;;;;;18.44;100.00;100807.94;5103443;27;20627;-78
2021/06/30 04:54:05;;;;;;;44.22;30.13;;;;;;;18.40;100.00;100812.00;5067576;28;20804;-77
2021/06/30 04:56:42;;;;;;;51.42;33.58;;;;;;;18.37;100.00;100814.25;5065850;28;20143;-77
2021/06/30 04:59:19;;;;;;;45.65;31.90;;;;;;;18.40;100.00;100817.31;5107211;27;20141;-78
2021/06/30 05:01:55;;;;;;;43.58;30.98;;;;;;;18.39;100.00;100817.53;5088014;27;20129;-78
2021/06/30 05:04:32;;;;;;;43.00;30.25;;;;;;;18.39;100.00;100817.53;5111961;27;20148;-77
2021/06/30 05:07:08;;;;;;;47.08;31.98;;;;;;;18.40;100.00;100827.94;5102196;27;20138;-77
2021/06/30 05:09:46;;;;;;;47.85;30.77;;;;;;;18.39;100.00;100828.94;5117824;27;1191268;-84
2021/06/30 05:12:23;;;;;;;40.17;30.27;;;;;;;18.46;100.00;100824.50;5084940;28;20390;-78
2021/06/30 05:15:00;;;;;;;41.10;28.92;;;;;;;18.48;100.00;100819.81;5125479;27;20128;-78
2021/06/30 05:17:36;;;;;;;42.10;30.60;;;;;;;18.51;100.00;100821.25;5128360;27;20154;-78
2021/06/30 05:20:13;;;;;;;48.17;31.80;;;;;;;18.58;100.00;100816.78;5084844;27;20135;-77
2021/06/30 05:22:49;;;;;;;39.15;29.40;;;;;;;18.63;100.00;100818.88;5062828;28;20131;-78
2021/06/30 05:25:26;;;;;;;38.00;28.17;;;;;;;18.77;100.00;100822.38;5131460;27;20128;-79
2021/06/30 05:28:03;;;;;;;38.30;28.10;;;;;;;18.86;100.00;100823.88;5062229;28;20139;-79
2021/06/30 05:41:03;;;;;;;40.22;29.42;;;;;;;19.08;98.89;100818.41;5081015;27;20393;-76
2021/06/30 05:43:41;;;;;;;35.13;27.90;;;;;;;19.11;98.91;100807.41;5101762;27;20384;-87
2021/06/30 05:46:19;;;;;;;35.63;26.95;;;;;;;19.14;99.94;100807.81;5112082;27;20381;-85
2021/06/30 05:48:56;;;;;;;40.08;28.80;;;;;;;19.33;100.00;100810.72;5066667;28;20733;-79
2021/06/30 05:51:33;;;;;;;34.25;27.20;;;;;;;19.39;98.29;100810.72;5128512;27;20128;-78
2021/06/30 05:54:10;;;;;;;37.50;27.40;;;;;;;19.42;98.74;100812.13;5043953;27;20619;-77
2021/06/30 05:56:48;;;;;;;31.33;25.58;;;;;;;19.38;97.46;100810.91;5082139;28;20410;-78
2021/06/30 05:59:24;;;;;;;31.38;24.30;;;;;;;19.36;98.59;100819.06;5083027;27;20134;-77
2021/06/30 06:02:00;;;;;;;34.42;26.70;;;;;;;19.33;98.09;100816.03;5108540;27;20136;-79
2021/06/30 06:04:37;;;;;;;33.13;27.50;;;;;;;19.25;97.35;100811.72;5043907;27;20132;-78
2021/06/30 06:07:13;;;;;;;32.58;26.20;;;;;;;19.16;95.15;100811.09;5064422;28;20130;-79
2021/06/30 06:09:50;;;;;;;32.40;27.05;;;;;;;19.19;97.29;100818.66;5128241;27;20138;-79
2021/06/30 06:12:27;;;;;;;34.00;27.40;;;;;;;19.24;96.62;100810.06;5061563;28;20135;-77
2021/06/30 06:15:09;;;;;;;35.53;27.05;;;;;;;19.35;96.17;100811.34;5100320;27;20133;-76
2021/06/30 06:17:45;;;;;;;31.52;25.85;;;;;;;19.37;96.13;100806.63;5107074;27;20373;-78
2021/06/30 06:20:21;;;;;;;32.92;27.00;;;;;;;19.54;95.57;100815.03;5065713;28;20142;-76
2021/06/30 06:22:58;;;;;;;36.15;25.42;;;;;;;19.52;98.00;100809.09;5066955;28;20145;-79
2021/06/30 06:25:34;;;;;;;30.95;25.60;;;;;;;19.57;94.00;100812.78;5106347;27;20140;-79
2021/06/30 06:28:12;;;;;;;34.72;25.38;;;;;;;19.53;94.06;100800.06;5105294;27;20501;-78
2021/06/30 06:30:49;;;;;;;33.50;25.45;;;;;;;19.44;94.94;100800.28;5106473;27;20898;-78
2021/06/30 06:33:26;;;;;;;38.60;26.35;;;;;;;19.57;96.16;100806.63;5086951;27;20134;-78
2021/06/30 06:36:03;;;;;;;33.47;26.40;;;;;;;19.68;95.46;100814.00;5074233;27;20146;-79
2021/06/30 06:38:40;;;;;;;30.58;25.20;;;;;;;19.74;94.55;100815.03;5107112;27;20380;-78
2021/06/30 06:51:41;;;;;;;30.80;26.05;;;;;;;20.12;93.45;100823.22;5066336;28;20394;-79
2021/06/30 06:54:17;;;;;;;34.28;26.13;;;;;;;20.21;93.63;100821.97;5126680;27;20375;-78
2021/06/30 06:56:54;;;;;;;31.77;25.98;;;;;;;20.23;93.46;100819.91;5102391;27;20133;-79
2021/06/30 06:59:30;;;;;;;33.17;27.00;;;;;;;20.16;93.10;100816.44;5106683;27;20129;-78
2021/06/30 07:02:07;;;;;;;36.35;27.48;;;;;;;20.03;91.70;100819.13;5104094;27;20148;-79
2021/06/30 07:04:44;;;;;;;36.47;26.70;;;;;;;19.91;93.06;100824.28;5118562;27;1184466;-83
2021/06/30 07:07:20;;;;;;;34.60;25.95;;;;;;;19.87;92.95;100822.22;5105978;27;20384;-79
2021/06/30 07:09:57;;;;;;;31.40;24.80;;;;;;;19.88;94.56;100826.53;5146068;27;20133;-81
2021/06/30 07:12:34;;;;;;;35.53;25.35;;;;;;;19.89;95.73;100834.31;5104436;27;20133;-77
2021/06/30 07:15:10;;;;;;;31.85;25.17;;;;;;;19.81;94.70;100829.16;5107555;27;20608;-79
2021/06/30 07:17:47;;;;;;;33.38;24.70;;;;;;;19.84;94.06;100828.78;5085732;27;20133;-81
2021/06/30 07:20:23;;;;;;;37.67;26.17;;;;;;;19.92;93.74;100833.88;5081361;28;20131;-79
2021/06/30 07:23:00;;;;;;;35.53;27.10;;;;;;;20.03;90.07;100837.75;5106923;27;20652;-79
2021/06/30 07:25:38;;;;;;;34.20;25.05;;;;;;;20.08;90.60;100847.78;5118849;27;1181642;-81
2021/06/30 07:28:15;;;;;;;34.83;26.42;;;;;;;20.19;90.77;100844.47;5104477;27;20185;-80
2021/06/30 07:30:52;;;;;;;30.58;25.02;;;;;;;20.38;91.31;100845.47;5061253;28;20364;-80
2021/06/30 07:33:30;;;;;;;29.08;23.50;;;;;;;20.56;91.20;100848.28;5085090;27;20384;-85
2021/06/30 07:36:08;;;;;;;28.80;23.13;;;;;;;20.54;87.86;100858.34;5126610;27;20383;-79
2021/06/30 07:38:44;;;;;;;26.25;21.63;;;;;;;20.46;87.79;100847.13;5120190;27;1216901;-82
2021/06/30 07:41:19;;;;;;;30.10;22.77;;;;;;;20.34;87.51;100849.59;5064561;28;20394;-80
2021/06/30 07:43:56;;;;;;;33.00;24.33;;;;;;;20.14;89.20;100850.44;5106934;27;20124;-80
2021/06/30 07:46:34;;;;;;;29.20;24.35;;;;;;;20.06;90.94;100848.00;5070064;28;20380;-82
2021/06/30 07:49:11;;;;;;;26.50;22.13;;;;;;;20.08;90.62;100840.63;5107752;27;20385;-78
2021/06/30 07:51:48;;;;;;;29.42;23.55;;;;;;;20.18;89.64;100848.19;5066295;28;20138;-78
2021/06/30 07:54:26;;;;;;;29.75;23.30;;;;;;;20.08;88.18;100853.94;5166141;27;20368;-84
2021/06/30 07:57:02;;;;;;;30.00;24.02;;;;;;;20.00;88.81;100854.13;5081774;27;20404;-77
2021/06/30 07:59:39;;;;;;;29.23;23.33;;;;;;;19.95;89.14;100854.78;5107259;27;20137;-79
2021/06/30 08:02:16;;;;;;;26.98;20.95;;;;;;;19.90;90.27;100851.91;5155858;27;20141;-79
2021/06/30 08:04:52;;;;;;;32.42;22.95;;;;;;;19.82;90.02;100852.94;5127159;27;20757;-78
2021/06/30 08:07:28;;;;;;;26.10;21.08;;;;;;;19.75;87.89;100848.63;5086128;27;20126;-79
2021/06/30 08:10:08;;;;;;;26.70;21.53;;;;;;;19.88;91.02;100856.59;5122262;27;1181738;-84
2021/06/30 08:12:45;;;;;;;27.42;20.58;;;;;;;19.72;89.57;100843.66;5144061;27;20399;-78
2021/06/30 08:15:23;;;;;;;26.17;20.30;;;;;;;19.75;91.20;100851.28;5119381;27;1196051;-84
2021/06/30 08:18:00;;;;;;;23.38;19.65;;;;;;;19.75;91.48;100852.09;5128118;27;20127;-79
2021/06/30 08:20:36;;;;;;;28.05;21.08;;;;;;;19.74;90.01;100850.47;5107156;27;20388;-80
2021/06/30 08:23:15;;;;;;;25.63;20.75;;;;;;;19.74;88.87;100841.66;5109722;27;20385;-82
2021/06/30 08:25:52;;;;;;;24.33;20.15;;;;;;;19.79;91.07;100845.34;5115437;27;20369;-82
2021/06/30 08:28:28;;;;;;;23.08;18.23;;;;;;;20.06;90.82;100852.50;5083280;27;20148;-79
2021/06/30 08:31:04;;;;;;;25.98;18.45;;;;;;;20.22;91.24;100852.06;5088162;27;20137;-78
2021/06/30 08:33:41;;;;;;;20.38;17.20;;;;;;;20.43;90.32;100854.47;5087283;27;20133;-79
2021/06/30 08:36:17;;;;;;;21.45;18.45;;;;;;;20.53;89.69;100859.38;5116310;27;20594;-80
2021/06/30 08:38:54;;;;;;;22.25;16.63;;;;;;;20.80;86.00;100857.47;5130251;27;20132;-78
2021/06/30 08:41:31;;;;;;;21.55;16.17;;;;;;;21.12;82.95;100859.38;5068604;28;20141;-79
2021/06/30 08:44:07;;;;;;;16.95;14.88;;;;;;;21.45;81.76;100855.72;5046084;28;20128;-81
2021/06/30 08:46:47;;;;;;;19.30;13.50;;;;;;;21.66;81.33;100863.38;5131812;27;20381;-84
2021/06/30 08:49:26;;;;;;;18.30;13.77;;;;;;;21.70;76.66;100855.72;5068479;28;20383;-80
2021/06/30 08:52:06;;;;;;;15.63;13.75;;;;;;;21.73;78.23;100866.78;5115056;27;20361;-82
2021/06/30 08:54:44;;;;;;;17.90;15.18;;;;;;;21.62;76.28;100853.34;5119309;27;1181530;-82
2021/06/30 08:57:22;;;;;;;17.15;15.07;;;;;;;21.43;78.25;100858.56;5100568;27;20186;-79
2021/06/30 08:59:59;;;;;;;17.77;14.30;;;;;;;21.45;81.11;100856.53;5114986;27;1223138;-82
2021/06/30 09:02:36;;;;;;;17.38;14.77;;;;;;;21.50;83.66;100859.38;5066975;28;20392;-79
2021/06/30 09:08:03;;;;;;;15.10;13.45;;;;;;;21.67;83.79;100862.31;5104859;27;20394;-83
2021/06/30 09:10:39;;;;;;;15.63;13.18;;;;;;;21.88;81.82;100873.66;5065946;28;20403;-77
2021/06/30 09:13:24;;;;;;;16.58;14.68;;;;;;;21.88;80.13;100871.00;5105381;27;20136;-77
2021/06/30 09:16:02;;;;;;;16.83;12.82;;;;;;;21.88;78.82;100871.00;5091430;27;20386;-80
2021/06/30 09:18:42;;;;;;;15.52;13.68;;;;;;;21.71;79.02;100879.53;5110900;27;20424;-79
2021/06/30 09:21:20;;;;;;;21.45;14.93;;;;;;;21.37;78.90;100876.25;5106440;27;20554;-78
2021/06/30 09:23:59;;;;;;;18.85;13.70;;;;;;;21.26;83.54;100884.13;5072874;27;20144;-77
2021/06/30 09:37:06;;;;;;;16.47;13.07;;;;;;;20.97;85.63;100873.81;5111799;27;1181080;-84
2021/06/30 09:39:51;;;;;;;19.20;12.85;;;;;;;21.04;86.24;100883.63;5112140;27;20388;-84
2021/06/30 09:42:30;;;;;;;14.88;12.38;;;;;;;21.02;84.13;100877.66;5114625;27;20380;-77
2021/06/30 09:45:11;;;;;;;21.75;14.23;;;;;;;20.97;83.01;100881.81;5070948;28;20391;-78
2021/06/30 09:58:30;;;;;;;16.63;14.05;;;;;;;20.95;83.08;100878.53;5113534;27;20389;-82
2021/06/30 10:01:15;;;;;;;16.45;13.82;;;;;;;21.07;82.85;100889.34;5069046;27;20971;-76
2021/06/30 10:03:52;;;;;;;19.63;14.88;;;;;;;21.02;86.26;100883.84;5055126;28;20743;-84
2021/06/30 10:06:33;;;;;;;20.42;13.07;;;;;;;21.07;86.98;100884.00;5074032;28;20861;-82
2021/06/30 10:09:14;;;;;;;16.67;12.77;;;;;;;21.04;87.26;100888.94;5066791;28;20388;-79
2021/06/30 10:11:57;;;;;;;20.45;13.73;;;;;;;21.19;85.66;100882.31;5045093;28;20380;-77
2021/06/30 10:14:34;;;;;;;21.77;14.80;;;;;;;21.28;82.90;100876.72;5066558;28;20386;-78
2021/06/30 10:17:13;;;;;;;17.42;13.90;;;;;;;21.39;80.62;100871.50;5021283;28;20376;-77
2021/06/30 10:19:51;;;;;;;21.83;14.15;;;;;;;21.34;80.79;100871.38;5062020;28;20746;-78
2021/06/30 10:22:28;;;;;;;21.20;13.75;;;;;;;21.30;80.25;100872.78;5100632;27;1213335;-80
2021/06/30 10:25:06;;;;;;;16.38;12.43;;;;;;;21.43;82.79;100873.75;5119933;27;20381;-78
2021/06/30 10:38:06;;;;;;;17.02;12.38;;;;;;;21.80;79.51;100861.41;5107404;27;20403;-77
2021/06/30 10:40:42;;;;;;;18.17;11.48;;;;;;;21.88;80.01;100861.13;5107745;27;20392;-76
2021/06/30 10:43:19;;;;;;;16.25;12.18;;;;;;;21.94;79.82;100854.94;5057903;28;20151;-77
2021/06/30 10:56:30;;;;;;;21.63;12.70;;;;;;;21.41;81.78;100836.63;5108688;27;20392;-79
2021/06/30 10:59:08;;;;;;;19.30;11.88;;;;;;;21.34;80.34;100826.00;5095459;27;20330;-79
2021/06/30 11:12:11;;;;;;;15.30;10.45;;;;;;;21.29;83.49;100838.34;5151056;27;20406;-81
2021/06/30 11:25:24;;;;;;;14.30;8.38;;;;;;;21.83;79.47;100836.97;5104517;27;20412;-76
2021/06/30 11:28:03;;;;;;;11.02;9.10;;;;;;;21.93;78.38;100831.13;5129835;27;20380;-83
2021/06/30 11:30:39;;;;;;;11.25;8.15;;;;;;;22.17;78.38;100845.47;5113288;27;20718;-84
2021/06/30 11:33:15;;;;;;;11.70;8.82;;;;;;;22.11;73.45;100849.84;5112392;27;20136;-83
2021/06/30 11:36:01;;;;;;;12.02;8.65;;;;;;;22.27;78.71;100851.16;5046427;27;20089;-80
2021/06/30 11:38:38;;;;;;;12.77;7.70;;;;;;;22.52;75.85;100845.72;5163237;27;20382;-78
2021/06/30 11:41:22;;;;;;;10.55;7.57;;;;;;;22.80;75.38;100849.72;5112069;27;20371;-82
2021/06/30 11:43:58;;;;;;;11.98;7.53;;;;;;;22.76;71.69;100837.03;5113952;27;1193831;-82
2021/06/30 11:46:34;;;;;;;9.45;7.15;;;;;;;22.95;72.72;100846.66;5128274;27;1184582;-81
2021/06/30 11:49:11;;;;;;;11.20;7.60;;;;;;;23.21;74.24;100856.22;5108931;27;20888;-75
2021/06/30 12:02:12;;;;;;;15.07;8.77;;;;;;;23.87;69.79;100865.09;5110209;27;20399;-77
2021/06/30 12:04:48;;;;;;;14.45;7.45;;;;;;;23.85;68.32;100877.09;5066476;27;21063;-76
2021/06/30 12:07:23;;;;;;;12.18;8.07;;;;;;;23.42;69.62;100878.97;5088216;27;1207980;-83
2021/06/30 12:10:02;;;;;;;11.98;7.93;;;;;;;22.91;73.40;100893.63;5069165;28;20394;-78
2021/06/30 12:12:40;;;;;;;14.73;9.00;;;;;;;22.48;71.00;100891.84;5076630;27;20399;-78
2021/06/30 12:25:40;;;;;;;13.63;8.57;;;;;;;22.16;74.41;100884.72;5094127;27;1224639;-81
2021/06/30 12:28:18;;;;;;;14.02;8.20;;;;;;;22.30;78.56;100882.78;5094072;27;20394;-78
2021/06/30 12:30:56;;;;;;;18.00;9.20;;;;;;;22.22;76.19;100874.19;5102302;27;20365;-78
2021/06/30 12:33:34;;;;;;;21.50;11.05;;;;;;;21.87;75.91;100878.19;5054974;28;20431;-77
2021/06/30 12:36:10;;;;;;;17.30;11.07;;;;;;;21.76;76.87;100870.91;5117916;27;20132;-79
2021/06/30 12:38:47;;;;;;;17.55;12.35;;;;;;;21.66;75.42;100858.03;5068830;28;20142;-79
2021/06/30 12:41:25;;;;;;;18.20;11.50;;;;;;;21.63;79.80;100850.47;5111204;27;20384;-80
2021/06/30 12:44:02;;;;;;;19.60;12.07;;;;;;;21.76;80.07;100857.53;5115446;27;1199894;-79
2021/06/30 12:46:37;;;;;;;17.52;12.68;;;;;;;21.78;77.37;100840.28;5110642;27;1184809;-81
2021/06/30 12:49:16;;;;;;;19.23;12.43;;;;;;;22.06;79.13;100846.19;5118833;27;1190616;-81
2021/06/30 12:51:53;;;;;;;18.10;12.15;;;;;;;22.33;79.70;100857.47;5102661;27;20410;-77
2021/06/30 12:54:30;;;;;;;16.10;11.55;;;;;;;22.17;75.09;100858.84;5087577;27;20613;-78
2021/06/30 12:57:05;;;;;;;17.58;11.52;;;;;;;22.01;77.55;100864.72;5107419;27;1187273;-82
2021/06/30 12:59:41;;;;;;;18.63;12.48;;;;;;;21.87;79.94;100862.19;5066594;28;20387;-78
2021/06/30 13:02:17;;;;;;;15.27;10.82;;;;;;;21.74;80.73;100857.75;5107447;27;1400737;-81
2021/06/30 13:04:54;;;;;;;13.38;9.52;;;;;;;21.71;78.24;100866.19;5118523;27;1180454;-81
2021/06/30 13:07:39;;;;;;;15.52;9.70;;;;;;;21.65;79.99;100863.59;5066600;28;20410;-80
2021/06/30 13:10:18;;;;;;;13.10;8.27;;;;;;;21.58;80.33;100861.75;5120378;27;20326;-78
2021/06/30 13:13:08;;;;;;;12.68;8.68;;;;;;;21.46;80.47;100862.69;5112705;27;20384;-83
2021/06/30 13:15:45;;;;;;;14.37;8.67;;;;;;;21.20;79.97;100859.13;5103943;27;1237055;-80
2021/06/30 13:18:22;;;;;;;9.70;7.38;;;;;;;21.13;81.36;100877.81;5091288;27;20393;-81
2021/06/30 13:21:05;;;;;;;10.93;8.40;;;;;;;20.97;81.91;100879.13;5088016;27;20386;-77
2021/06/30 13:23:52;;;;;;;12.55;7.95;;;;;;;20.92;80.27;100880.78;5108155;27;20393;-80
2021/06/30 13:35:19;;;;;;;12.70;8.73;;;;;;;20.54;83.16;100870.84;5103873;27;20382;-76
2021/06/30 13:37:58;;;;;;;11.00;8.95;;;;;;;20.45;83.16;100878.25;5053941;28;20405;-82
2021/06/30 13:40:38;;;;;;;15.57;9.95;;;;;;;20.30;82.72;100878.47;5111892;27;1185476;-80
2021/06/30 13:43:15;;;;;;;14.05;8.68;;;;;;;20.28;83.13;100882.38;5070733;27;20407;-79
2021/06/30 13:46:02;;;;;;;11.63;8.63;;;;;;;20.22;85.19;100886.69;5050315;28;20395;-79
2021/06/30 13:48:42;;;;;;;15.85;9.48;;;;;;;20.10;85.81;100883.00;5069994;28;20865;-78
2021/06/30 13:51:20;;;;;;;13.35;9.30;;;;;;;20.09;86.84;100890.19;5064816;28;20378;-79
2021/06/30 13:53:56;;;;;;;13.38;9.32;;;;;;;19.96;85.12;100885.66;5122545;27;21083;-76
2021/06/30 13:56:33;;;;;;;16.30;10.55;;;;;;;19.80;84.19;100881.59;5108787;27;20154;-78
2021/06/30 14:09:34;;;;;;;15.52;10.68;;;;;;;19.39;87.76;100897.66;5107918;27;20362;-77
2021/06/30 14:12:11;;;;;;;20.83;11.10;;;;;;;19.37;88.84;100889.88;5117829;27;20432;-76
2021/06/30 14:14:48;;;;;;;19.65;11.00;;;;;;;19.38;90.12;100872.06;5101475;27;20129;-79
2021/06/30 14:17:25;;;;;;;22.98;12.15;;;;;;;19.25;90.82;100857.75;5061411;28;20138;-80